there are no active watches, warnings or advisories



my webcam  My webcam


visit our other weather sites:

Template documentation
and downloads

And another site




nearby metar reports

   
KAHN - Athens Airport, GA
distance from station: e 35 mi
updated: Dec 7 2019 12:51 am
overcast  
overcast  
   wind: calm
wind: calm
temperature: 50°F
dew point: 39.2°F
humidity: 67%
barometer: 30.19 inHg
clouds: Overcast
visibility: 10 mi
cloud details: overcast 7000 ft
KAHN 070551Z AUTO 00000KT 10SM OVC070 10/04 A3019 RMK AO2 SLP223 T01000044 10122 20089 58002
KBGE - Brainbridge Airport, GA
distance from station: ssw 180 mi
updated: Dec 7 2019 1:15 am
overcast  
overcast  
   wind: ene 3.5 mph
wind: ene 3.5 mph
temperature: 53.6°F
dew point: 51.8°F
humidity: 94%
barometer: 30.14 inHg
clouds: Overcast
visibility: 10 mi
cloud details: mostly cloudy 3100 ft,
overcast 3800 ft
KBGE 070615Z AUTO 06003KT 10SM BKN031 OVC038 12/11 A3014 RMK AO2 T01220108
KSSI - Brunswick Airport, GA
distance from station: se 209 mi
updated: Dec 7 2019 12:53 am
clear  
clear  
   wind: north 3.5 mph
wind: north 3.5 mph
temperature: 51.8°F
dew point: 48.2°F
humidity: 88%
barometer: 30.16 inHg
clouds: Clear
visibility: 10 mi
cloud details: clear ft
KSSI 070553Z AUTO 36003KT 10SM CLR 11/09 A3016 RMK AO2 SLP215 T01110089 10161 20111 58000
KCSG - Columbus Airport, GA
distance from station: sw 92 mi
updated: Dec 7 2019 1:15 am
overcast  
overcast  
   wind: calm
wind: calm
temperature: 55.4°F
dew point: 44.6°F
humidity: 67%
barometer: 30.16 inHg
clouds: Overcast
visibility: 10 mi
cloud details: overcast 3100 ft
KCSG 070615Z AUTO 00000KT 10SM OVC031 13/07 A3016 RMK AO2 T01280067
KGVL - Gainsville Airport, GA
distance from station: n 30 mi
updated: Dec 7 2019 12:53 am
mostly cloudy  
mostly cloudy  
   wind: calm
wind: calm
temperature: 48.2°F
dew point: 41°F
humidity: 76%
barometer: 30.19 inHg
clouds: Mostly Cloudy
visibility: 10 mi
cloud details: mostly cloudy 3500 ft
KGVL 070553Z AUTO 00000KT 10SM BKN035 09/05 A3019 RMK AO2 SLP221 T00890050 10117 20083 58003
KRMG - Rome Airport, GA
distance from station: nw 60 mi
updated: Dec 7 2019 12:53 am
overcast  
overcast  
   wind: calm
wind: calm
temperature: 50°F
dew point: 44.6°F
humidity: 82%
barometer: 30.19 inHg
clouds: Overcast
visibility: 10 mi
cloud details: mostly cloudy 3800 ft,
overcast 6000 ft
KRMG 070553Z AUTO 10SM BKN038 OVC060 10/07 A3019 RMK AO2 SLP219 T01000067 10106 20100 58002
KSAV - Savannah Airport, GA
distance from station: se 183 mi
updated: Dec 7 2019 12:53 am
overcast  
overcast  
   wind: wnw 4.6 mph
wind: wnw 4.6 mph
temperature: 53.6°F
dew point: 48.2°F
humidity: 82%
barometer: 30.18 inHg
clouds: Overcast
visibility: 10 mi
cloud details: overcast 12000 ft
KSAV 070553Z AUTO 30004KT 10SM OVC120 12/09 A3018 RMK AO2 SLP219 T01220094 10161 20117 58004
KVLD - Valdosta Airport, GA
distance from station: s 185 mi
updated: Dec 7 2019 12:53 am
mostly cloudy  
mostly cloudy  
   wind: calm
wind: calm
temperature: 48.2°F
dew point: 44.6°F
humidity: 87%
barometer: 30.17 inHg
clouds: Mostly Cloudy
visibility: 10 mi
cloud details: mostly cloudy 3700 ft
KVLD 070553Z AUTO 00000KT 10SM BKN037 09/07 A3017 RMK AO2 SLP223 T00940072 10139 20078 50002
KWRB - Warner Robins Airport, GA
distance from station: sse 78 mi
updated: Dec 7 2019 12:56 am
overcast  
overcast  
   wind: calm
wind: calm
temperature: 53.6°F
dew point: 46.4°F
humidity: 77%
barometer: 30.17 inHg
clouds: Overcast
visibility: 10 mi
cloud details: overcast 4000 ft
KWRB 070556Z 00000KT 10SM OVC040 12/08 A3017 RMK AO2A SLP219 T01150078 10126 20104 58002

script developed by  Saratoga-weather.org adapted for the template by  Weerstation Leuven

equipment we use:

weather-station
Davis VP2 weatherstation

weather-program
WeatherLink

weather-server
My Computer

provider
My provider

Davis VP2 weatherstation

WeatherLink

My Computer

My provider